createdAt,value
2022-10-23T00:01:31.275Z,20.58
2022-10-23T00:04:01.765Z,16.85
2022-10-23T00:06:29.999Z,19.63
2022-10-23T00:08:56.671Z,16.42
2022-10-23T00:11:26.638Z,16.50
2022-10-23T00:13:56.997Z,19.52
2022-10-23T00:16:23.615Z,17.67
2022-10-23T00:18:51.127Z,19.35
2022-10-23T00:21:18.822Z,15.15
2022-10-23T00:23:47.503Z,25.63
2022-10-23T00:26:16.139Z,23.65
2022-10-23T00:28:45.218Z,18.58
2022-10-23T00:31:13.989Z,16.45
2022-10-23T00:33:42.059Z,17.95
2022-10-23T00:36:12.040Z,20.10
2022-10-23T00:38:38.661Z,16.83
2022-10-23T00:41:06.316Z,25.75
2022-10-23T00:43:33.906Z,21.58
2022-10-23T00:46:00.758Z,24.52
2022-10-23T00:48:28.865Z,27.15
2022-10-23T00:50:56.099Z,33.45
2022-10-23T00:53:23.449Z,31.70
2022-10-23T00:55:53.981Z,21.08
2022-10-23T00:58:21.386Z,19.13
2022-10-23T01:00:52.103Z,26.05
2022-10-23T01:03:21.526Z,22.63
2022-10-23T01:08:52.837Z,24.38
2022-10-23T01:11:26.694Z,23.02
2022-10-23T01:19:50.960Z,23.02
2022-10-23T01:22:48.256Z,27.92
2022-10-23T01:28:00.193Z,23.13
2022-10-23T01:30:26.837Z,23.83
2022-10-23T01:33:01.691Z,16.45
2022-10-23T01:40:49.786Z,26.02
2022-10-23T01:43:26.621Z,30.30
2022-10-23T01:45:58.350Z,26.23
2022-10-23T01:48:29.131Z,23.70
2022-10-23T01:50:59.124Z,26.83
2022-10-23T01:53:30.702Z,33.47
2022-10-23T01:55:59.236Z,26.13
2022-10-23T01:58:28.233Z,37.40
2022-10-23T02:01:01.587Z,38.00
2022-10-23T02:03:31.014Z,31.98
2022-10-23T02:05:58.018Z,23.88
2022-10-23T02:08:25.775Z,38.90
2022-10-23T02:11:04.321Z,33.50
2022-10-23T02:16:43.592Z,75.65
2022-10-23T02:22:12.105Z,133.52
2022-10-23T02:24:45.575Z,122.65
2022-10-23T02:27:16.726Z,130.90
2022-10-23T02:29:48.550Z,88.03
2022-10-23T02:32:18.760Z,136.55
2022-10-23T02:34:45.410Z,98.93
2022-10-23T02:37:12.025Z,158.00
2022-10-23T02:39:39.311Z,86.93
2022-10-23T02:45:00.587Z,68.80
2022-10-23T02:47:52.314Z,40.65
2022-10-23T02:50:29.276Z,57.53
2022-10-23T02:58:45.279Z,45.42
2022-10-23T03:01:17.347Z,34.88
2022-10-23T03:03:51.465Z,35.15
2022-10-23T03:06:18.082Z,34.78
2022-10-23T03:08:50.154Z,33.92
2022-10-23T03:11:16.880Z,38.90
2022-10-23T03:13:43.541Z,26.73
2022-10-23T03:16:10.132Z,24.15
2022-10-23T03:18:36.889Z,30.38
2022-10-23T03:21:03.774Z,34.80
2022-10-23T03:23:30.305Z,25.50
2022-10-23T03:25:56.933Z,23.90
2022-10-23T03:28:23.719Z,28.65
2022-10-23T03:30:50.437Z,29.55
2022-10-23T03:33:16.959Z,31.45
2022-10-23T03:35:43.564Z,32.42
2022-10-23T03:38:10.304Z,29.63
2022-10-23T03:40:36.865Z,22.77
2022-10-23T03:43:03.449Z,17.88
2022-10-23T03:45:30.950Z,24.98
2022-10-23T03:47:57.473Z,26.52
2022-10-23T03:50:24.430Z,27.45
2022-10-23T03:52:51.286Z,31.20
2022-10-23T03:55:17.898Z,30.45
2022-10-23T03:57:44.429Z,24.27
2022-10-23T04:00:11.372Z,21.80
2022-10-23T04:02:37.973Z,33.40
2022-10-23T04:05:05.009Z,20.63
2022-10-23T04:07:31.615Z,16.63
2022-10-23T04:09:58.114Z,29.48
2022-10-23T04:12:24.665Z,19.17
2022-10-23T04:14:51.187Z,24.77
2022-10-23T04:17:17.775Z,24.83
2022-10-23T04:19:44.415Z,22.05
2022-10-23T04:22:10.986Z,20.25
2022-10-23T04:24:37.687Z,22.75
2022-10-23T04:27:04.243Z,23.05
2022-10-23T04:29:32.561Z,23.83
2022-10-23T04:31:59.335Z,22.33
2022-10-23T04:34:26.079Z,24.27
2022-10-23T04:36:52.602Z,17.65
2022-10-23T04:39:19.261Z,21.98
2022-10-23T04:41:45.867Z,19.75
2022-10-23T04:44:12.403Z,18.33
2022-10-23T04:46:39.006Z,15.85
2022-10-23T04:49:05.532Z,17.63
2022-10-23T04:51:32.100Z,18.77
2022-10-23T04:53:58.787Z,22.27
2022-10-23T04:56:25.429Z,20.30
2022-10-23T04:58:52.738Z,20.80
2022-10-23T05:01:19.493Z,14.48
2022-10-23T05:03:46.165Z,17.38
2022-10-23T05:06:12.937Z,25.15
2022-10-23T05:08:39.517Z,18.95
2022-10-23T05:11:06.114Z,17.70
2022-10-23T05:13:32.675Z,17.88
2022-10-23T05:16:00.149Z,20.73
2022-10-23T05:18:34.266Z,13.88
2022-10-23T05:21:22.454Z,18.15
2022-10-23T05:23:49.490Z,13.73
2022-10-23T05:26:16.031Z,12.27
2022-10-23T05:28:42.564Z,12.10
2022-10-23T05:31:09.725Z,16.08
2022-10-23T05:33:37.081Z,16.33
2022-10-23T05:36:04.460Z,15.52
2022-10-23T05:38:34.804Z,14.40
2022-10-23T05:41:01.463Z,15.00
2022-10-23T05:43:31.129Z,16.17
2022-10-23T05:45:58.366Z,15.63
2022-10-23T05:48:34.219Z,15.57
2022-10-23T05:51:04.569Z,16.45
2022-10-23T05:53:31.094Z,14.90
2022-10-23T05:56:04.265Z,14.30
2022-10-23T05:58:30.987Z,13.18
2022-10-23T06:00:57.614Z,12.95
2022-10-23T06:03:24.223Z,12.25
2022-10-23T06:05:51.513Z,11.88
2022-10-23T06:08:18.739Z,14.43
2022-10-23T06:10:45.249Z,17.13
2022-10-23T06:13:11.769Z,8.27
2022-10-23T06:15:38.758Z,12.27
2022-10-23T06:18:05.520Z,14.32
2022-10-23T06:20:35.796Z,10.27
2022-10-23T06:23:02.329Z,21.35
2022-10-23T06:25:28.890Z,13.70
2022-10-23T06:27:55.423Z,9.88
2022-10-23T06:30:21.940Z,8.68
2022-10-23T06:32:48.502Z,10.27
2022-10-23T06:35:15.241Z,8.90
2022-10-23T06:37:41.817Z,14.20
2022-10-23T06:40:09.062Z,10.93
2022-10-23T06:42:35.802Z,14.02
2022-10-23T06:45:06.261Z,12.55
2022-10-23T06:47:33.847Z,13.77
2022-10-23T06:50:00.422Z,17.42
2022-10-23T06:52:45.931Z,12.15
2022-10-23T06:55:13.867Z,12.40
2022-10-23T06:57:40.602Z,8.95
2022-10-23T07:00:08.137Z,16.27
2022-10-23T07:02:34.755Z,12.10
2022-10-23T07:05:01.297Z,12.57
2022-10-23T07:07:30.431Z,7.78
2022-10-23T07:09:57.096Z,5.35
2022-10-23T07:12:24.030Z,11.43
2022-10-23T07:14:50.918Z,8.88
2022-10-23T07:17:17.456Z,7.15
2022-10-23T07:19:43.988Z,9.63
2022-10-23T07:22:13.343Z,9.85
2022-10-23T07:24:42.333Z,11.25
2022-10-23T07:27:08.878Z,9.85
2022-10-23T07:29:35.392Z,8.02
2022-10-23T07:32:01.990Z,8.77
2022-10-23T07:34:28.574Z,8.63
2022-10-23T07:36:56.864Z,9.38
2022-10-23T07:39:23.912Z,7.75
2022-10-23T07:41:50.471Z,7.53
2022-10-23T07:44:17.224Z,9.55
2022-10-23T07:46:43.774Z,7.30
2022-10-23T07:49:11.569Z,5.97
2022-10-23T07:51:38.110Z,9.88
2022-10-23T07:54:04.796Z,5.35
2022-10-23T07:56:31.573Z,5.78
2022-10-23T07:58:58.221Z,5.35
2022-10-23T08:01:34.212Z,5.07
2022-10-23T08:04:01.555Z,3.55
2022-10-23T08:06:28.450Z,6.65
2022-10-23T08:08:55.108Z,6.78
2022-10-23T08:11:27.200Z,2.38
2022-10-23T08:13:56.253Z,3.78
2022-10-23T08:16:23.742Z,3.53
2022-10-23T08:18:50.920Z,5.80
2022-10-23T08:21:18.253Z,6.18
2022-10-23T08:23:45.249Z,2.65
2022-10-23T08:26:12.141Z,4.65
2022-10-23T08:28:39.229Z,3.10
2022-10-23T08:31:12.666Z,2.65
2022-10-23T08:33:39.850Z,4.35
2022-10-23T08:36:17.396Z,2.97
2022-10-23T08:38:44.102Z,3.50
2022-10-23T08:44:40.254Z,2.35
2022-10-23T08:50:02.558Z,5.57
2022-10-23T08:52:37.750Z,3.22
2022-10-23T08:55:24.477Z,2.70
2022-10-23T09:00:30.355Z,2.75
2022-10-23T09:02:57.005Z,1.48
2022-10-23T09:19:16.994Z,1.67
2022-10-23T09:21:50.025Z,1.85
2022-10-23T09:24:19.584Z,1.90
2022-10-23T09:26:49.840Z,4.63
2022-10-23T09:29:35.986Z,1.27
2022-10-23T09:32:06.305Z,3.47
2022-10-23T09:34:34.843Z,1.83
2022-10-23T09:37:04.858Z,3.40
2022-10-23T09:39:35.481Z,4.13
2022-10-23T09:42:20.913Z,3.15
2022-10-23T09:44:50.244Z,2.30
2022-10-23T09:47:20.770Z,2.95
2022-10-23T09:49:50.098Z,1.90
2022-10-23T09:54:56.954Z,2.80
2022-10-23T09:57:44.657Z,3.15
2022-10-23T10:03:07.059Z,4.55
2022-10-23T10:05:36.498Z,3.50
2022-10-23T10:24:13.263Z,4.97
2022-10-23T10:26:51.084Z,3.50
2022-10-23T10:42:58.679Z,4.72
2022-10-23T10:45:50.587Z,9.48
2022-10-23T10:51:05.843Z,7.35
2022-10-23T10:54:00.216Z,7.57
2022-10-23T10:56:29.764Z,8.45
2022-10-23T10:59:01.088Z,4.78
2022-10-23T11:01:34.870Z,6.28
2022-10-23T11:06:38.215Z,9.68
2022-10-23T11:09:24.350Z,6.72
2022-10-23T11:11:51.163Z,7.60
2022-10-23T11:14:27.966Z,3.95
2022-10-23T11:17:18.729Z,6.55
2022-10-23T11:19:54.897Z,6.18
2022-10-23T11:22:48.620Z,6.75
2022-10-23T11:36:20.937Z,7.13
2022-10-23T11:38:51.025Z,5.25
2022-10-23T11:41:26.965Z,3.50
2022-10-23T11:49:02.537Z,3.53
2022-10-23T11:57:14.438Z,3.13
2022-10-23T12:05:25.228Z,2.80
2022-10-23T12:07:59.178Z,4.72
2022-10-23T12:10:31.994Z,1.42
2022-10-23T12:13:01.912Z,2.75
2022-10-23T12:15:28.587Z,1.67
2022-10-23T12:18:08.553Z,1.60
2022-10-23T12:31:34.382Z,3.25
2022-10-23T12:37:37.809Z,1.75
2022-10-23T12:40:09.915Z,2.28
2022-10-23T12:42:37.509Z,4.47
2022-10-23T12:45:17.371Z,1.92
2022-10-23T12:47:46.661Z,1.83
2022-10-23T12:50:19.225Z,1.52
2022-10-23T12:53:05.136Z,2.45
2022-10-23T12:55:48.596Z,1.73
2022-10-23T12:58:21.002Z,1.65
2022-10-23T13:00:55.054Z,1.05
2022-10-23T13:03:24.384Z,1.73
2022-10-23T13:05:53.560Z,1.70
2022-10-23T13:08:22.145Z,3.50
2022-10-23T13:10:49.651Z,1.70
2022-10-23T13:13:23.957Z,2.83
2022-10-23T13:15:50.985Z,2.20
2022-10-23T13:18:18.348Z,3.55
2022-10-23T13:26:06.232Z,1.63
2022-10-23T13:33:43.476Z,2.63
2022-10-23T13:38:47.697Z,3.33
2022-10-23T13:41:18.147Z,2.75
2022-10-23T13:43:45.951Z,3.28
2022-10-23T13:46:14.792Z,2.65
2022-10-23T13:48:41.383Z,2.45
2022-10-23T13:53:52.184Z,2.65
2022-10-23T13:56:20.390Z,1.60
2022-10-23T13:58:47.479Z,3.55
2022-10-23T14:01:33.555Z,1.83
2022-10-23T14:04:00.154Z,3.22
2022-10-23T14:06:26.707Z,1.73
2022-10-23T14:08:53.364Z,4.82
2022-10-23T14:11:21.219Z,3.28
2022-10-23T14:13:48.760Z,2.50
2022-10-23T14:16:17.716Z,1.60
2022-10-23T14:18:44.307Z,1.83
2022-10-23T14:21:13.444Z,4.30
2022-10-23T14:23:40.122Z,1.60
2022-10-23T14:26:09.291Z,3.30
2022-10-23T14:28:35.952Z,1.33
2022-10-23T14:31:14.724Z,2.72
2022-10-23T14:33:41.989Z,1.42
2022-10-23T14:36:10.560Z,1.83
2022-10-23T14:41:22.799Z,1.63
2022-10-23T14:43:49.391Z,2.05
2022-10-23T14:46:18.294Z,2.65
2022-10-23T14:48:47.139Z,3.25
2022-10-23T14:51:19.605Z,2.17
2022-10-23T14:53:47.092Z,1.92
2022-10-23T14:56:14.118Z,1.70
2022-10-23T14:58:42.165Z,1.00
2022-10-23T15:01:10.649Z,2.10
2022-10-23T15:03:37.553Z,1.92
2022-10-23T15:06:05.695Z,2.00
2022-10-23T15:08:32.362Z,3.33
2022-10-23T15:11:01.668Z,2.22
2022-10-23T15:13:28.251Z,2.58
2022-10-23T15:16:10.880Z,1.20
2022-10-23T15:21:09.985Z,1.67
2022-10-23T15:23:39.813Z,2.63
2022-10-23T15:26:09.201Z,1.75
2022-10-23T15:28:35.946Z,3.30
2022-10-23T15:31:02.612Z,1.42
2022-10-23T15:33:29.450Z,2.17
2022-10-23T15:35:56.102Z,1.48
2022-10-23T15:38:22.879Z,1.85
2022-10-23T15:40:50.074Z,1.10
2022-10-23T15:43:17.575Z,2.40
2022-10-23T15:45:45.265Z,2.22
2022-10-23T15:48:11.848Z,1.63
2022-10-23T15:50:38.406Z,1.55
2022-10-23T15:53:04.938Z,2.53
2022-10-23T15:55:31.525Z,1.35
2022-10-23T15:58:01.990Z,1.00
2022-10-23T16:00:28.587Z,3.25
2022-10-23T16:02:55.154Z,2.92
2022-10-23T16:05:21.686Z,2.50
2022-10-23T16:07:48.258Z,4.82
2022-10-23T16:10:14.851Z,6.45
2022-10-23T16:12:41.757Z,3.97
2022-10-23T16:15:09.179Z,5.13
2022-10-23T16:17:35.758Z,3.78
2022-10-23T16:20:02.307Z,4.55
2022-10-23T16:22:28.865Z,5.47
2022-10-23T16:24:55.576Z,3.70
2022-10-23T16:27:22.222Z,5.13
2022-10-23T16:29:48.816Z,7.05
2022-10-23T16:32:15.358Z,4.80
2022-10-23T16:34:42.037Z,3.45
2022-10-23T16:37:08.576Z,4.65
2022-10-23T16:39:36.133Z,4.32
2022-10-23T16:42:02.905Z,4.68
2022-10-23T16:44:29.420Z,2.67
2022-10-23T16:46:56.370Z,4.30
2022-10-23T16:49:23.106Z,3.55
2022-10-23T16:51:49.625Z,4.97
2022-10-23T16:54:17.658Z,4.65
2022-10-23T16:56:45.257Z,4.13
2022-10-23T16:59:11.858Z,3.55
2022-10-23T17:01:38.656Z,4.00
2022-10-23T17:04:07.155Z,4.32
2022-10-23T17:06:36.265Z,3.03
2022-10-23T17:09:04.345Z,3.70
2022-10-23T17:11:35.555Z,5.43
2022-10-23T17:14:06.859Z,2.88
2022-10-23T17:16:39.334Z,2.58
2022-10-23T17:19:20.866Z,2.53
2022-10-23T17:21:54.826Z,2.38
2022-10-23T17:24:22.026Z,2.72
2022-10-23T17:26:48.590Z,2.92
2022-10-23T17:29:16.104Z,4.38
2022-10-23T17:31:45.296Z,4.95
2022-10-23T17:34:14.486Z,2.60
2022-10-23T17:36:44.277Z,2.03
2022-10-23T17:39:15.004Z,4.07
2022-10-23T17:41:42.576Z,9.68
2022-10-23T17:44:09.681Z,5.72
2022-10-23T17:46:36.450Z,3.75
2022-10-23T17:49:04.760Z,5.78
2022-10-23T17:51:34.461Z,1.25
2022-10-23T18:01:34.861Z,2.97
2022-10-23T18:04:05.354Z,3.55
2022-10-23T18:06:36.464Z,3.40
2022-10-23T18:09:05.217Z,1.55
2022-10-23T18:11:43.868Z,1.80
2022-10-23T18:14:20.681Z,1.73
2022-10-23T18:20:06.805Z,1.75
2022-10-23T18:22:33.696Z,0.77
2022-10-23T18:25:00.466Z,0.40
2022-10-23T18:27:26.996Z,1.48
2022-10-23T18:29:54.108Z,2.38
2022-10-23T18:32:20.917Z,5.25
2022-10-23T18:34:47.646Z,0.77
2022-10-23T18:37:14.223Z,0.50
2022-10-23T18:39:40.761Z,0.45
2022-10-23T18:42:07.540Z,1.50
2022-10-23T18:44:34.172Z,1.10
2022-10-23T18:47:00.826Z,1.63
2022-10-23T18:49:28.426Z,0.63
2022-10-23T18:51:54.970Z,4.13
2022-10-23T18:54:22.338Z,2.83
2022-10-23T18:56:49.449Z,1.38
2022-10-23T18:59:19.179Z,2.42
2022-10-23T19:01:45.945Z,1.13
2022-10-23T19:04:15.738Z,1.00
2022-10-23T19:09:11.138Z,0.93
2022-10-23T19:11:38.126Z,1.92
2022-10-23T19:14:04.999Z,1.40
2022-10-23T19:16:41.714Z,2.92
2022-10-23T19:19:21.350Z,1.98
2022-10-23T19:21:49.840Z,1.30
2022-10-23T19:24:21.798Z,3.90
2022-10-23T19:26:49.118Z,1.08
2022-10-23T19:29:20.046Z,1.85
2022-10-23T19:31:49.288Z,1.98
2022-10-23T19:34:20.002Z,2.95
2022-10-23T19:36:48.686Z,2.05
2022-10-23T19:39:16.251Z,3.47
2022-10-23T19:41:43.157Z,2.08
2022-10-23T19:44:09.698Z,1.58
2022-10-23T19:46:37.079Z,2.08
2022-10-23T19:49:05.270Z,5.00
2022-10-23T19:51:32.491Z,1.15
2022-10-23T19:53:59.088Z,2.13
2022-10-23T19:56:26.130Z,2.38
2022-10-23T19:58:53.060Z,1.70
2022-10-23T20:01:22.575Z,3.75
2022-10-23T20:03:49.402Z,3.47
2022-10-23T20:06:19.768Z,2.22
2022-10-23T20:08:47.337Z,2.78
2022-10-23T20:11:20.710Z,5.25
2022-10-23T20:13:48.342Z,3.30
2022-10-23T20:16:21.619Z,2.90
2022-10-23T20:18:48.658Z,3.50
2022-10-23T20:21:15.838Z,4.70
2022-10-23T20:23:42.521Z,2.13
2022-10-23T20:26:12.311Z,3.20
2022-10-23T20:28:39.506Z,2.85
2022-10-23T20:31:09.180Z,1.60
2022-10-23T20:33:37.794Z,5.15
2022-10-23T20:36:07.285Z,5.75
2022-10-23T20:38:34.764Z,4.22
2022-10-23T20:41:05.873Z,4.85
2022-10-23T20:43:34.018Z,3.40
2022-10-23T20:46:06.794Z,3.85
2022-10-23T20:48:38.245Z,3.22
2022-10-23T20:51:06.939Z,3.75
2022-10-23T20:53:35.060Z,3.15
2022-10-23T20:56:06.792Z,3.97
2022-10-23T20:58:33.690Z,3.60
2022-10-23T21:01:05.971Z,5.68
2022-10-23T21:03:32.953Z,3.33
2022-10-23T21:06:06.618Z,4.07
2022-10-23T21:08:33.487Z,6.53
2022-10-23T21:11:00.423Z,3.53
2022-10-23T21:13:28.434Z,5.13
2022-10-23T21:15:56.343Z,4.57
2022-10-23T21:18:33.966Z,7.10
2022-10-23T21:21:12.104Z,3.58
2022-10-23T21:23:39.425Z,1.90
2022-10-23T21:26:07.617Z,1.83
2022-10-23T21:28:35.130Z,3.42
2022-10-23T21:31:04.510Z,4.53
2022-10-23T21:33:31.470Z,5.07
2022-10-23T21:36:04.798Z,2.97
2022-10-23T21:38:39.638Z,5.28
2022-10-23T21:41:07.779Z,3.17
2022-10-23T21:43:34.565Z,2.88
2022-10-23T21:46:18.316Z,7.97
2022-10-23T21:48:45.360Z,8.88
2022-10-23T21:51:29.406Z,4.75
2022-10-23T21:53:56.740Z,1.85
2022-10-23T21:56:34.098Z,6.65
2022-10-23T21:59:02.281Z,7.22
2022-10-23T22:01:29.768Z,4.47
2022-10-23T22:03:57.051Z,10.43
2022-10-23T22:06:26.641Z,5.00
2022-10-23T22:08:55.042Z,3.95
2022-10-23T22:11:22.400Z,5.15
2022-10-23T22:13:49.779Z,4.68
2022-10-23T22:16:16.778Z,9.43
2022-10-23T22:18:44.147Z,9.02
2022-10-23T22:21:14.605Z,6.55
2022-10-23T22:23:41.391Z,8.18
2022-10-23T22:26:20.359Z,7.25
2022-10-23T22:28:46.889Z,10.20
2022-10-23T22:31:16.847Z,6.93
2022-10-23T22:36:10.419Z,8.77
2022-10-23T22:38:37.135Z,8.63
2022-10-23T22:41:04.607Z,8.88
2022-10-23T22:43:31.377Z,8.13
2022-10-23T22:46:08.162Z,6.80
2022-10-23T22:48:36.067Z,3.20
2022-10-23T22:51:04.222Z,9.45
2022-10-23T22:53:31.312Z,4.60
2022-10-23T22:55:57.907Z,6.05
2022-10-23T22:58:25.760Z,9.07
2022-10-23T23:01:01.230Z,8.02
2022-10-23T23:03:27.896Z,9.73
2022-10-23T23:05:54.638Z,4.45
2022-10-23T23:08:21.231Z,9.82
2022-10-23T23:10:58.979Z,10.57
2022-10-23T23:13:27.262Z,3.55
2022-10-23T23:15:54.791Z,6.72
2022-10-23T23:18:21.772Z,2.95
2022-10-23T23:20:48.427Z,7.38
2022-10-23T23:23:15.801Z,3.15
2022-10-23T23:25:46.979Z,3.28
2022-10-23T23:28:16.491Z,4.47
2022-10-23T23:30:43.383Z,6.80
2022-10-23T23:33:11.134Z,6.50
2022-10-23T23:35:43.069Z,7.70
2022-10-23T23:38:10.332Z,5.82
2022-10-23T23:40:37.890Z,7.80
2022-10-23T23:43:04.931Z,4.18
2022-10-23T23:45:32.073Z,3.97
2022-10-23T23:47:59.016Z,6.40
2022-10-23T23:50:27.954Z,7.38
2022-10-23T23:52:54.577Z,9.80
2022-10-23T23:55:21.516Z,6.20
2022-10-23T23:57:48.328Z,7.32
